sensor_id;sensor_type;location;lat;lon;timestamp;temperature;humidity
41928;DHT22;27616;51.420;6.788;2024-03-23T00:55:34;6.50;99.90
41928;DHT22;27616;51.420;6.788;2024-03-23T00:58:00;6.50;99.90
41928;DHT22;27616;51.420;6.788;2024-03-23T01:00:25;6.50;99.90
41928;DHT22;27616;51.420;6.788;2024-03-23T01:02:51;6.60;99.90
41928;DHT22;27616;51.420;6.788;2024-03-23T01:05:16;6.60;99.90
41928;DHT22;27616;51.420;6.788;2024-03-23T01:07:42;6.50;99.90
41928;DHT22;27616;51.420;6.788;2024-03-23T01:10:08;6.50;99.90
41928;DHT22;27616;51.420;6.788;2024-03-23T01:12:33;6.40;99.90
41928;DHT22;27616;51.420;6.788;2024-03-23T01:14:59;6.40;99.90
41928;DHT22;27616;51.420;6.788;2024-03-23T01:17:25;6.40;99.90
41928;DHT22;27616;51.420;6.788;2024-03-23T01:19:50;6.30;99.90
41928;DHT22;27616;51.420;6.788;2024-03-23T01:22:16;6.20;99.90
41928;DHT22;27616;51.420;6.788;2024-03-23T01:24:41;6.20;99.90
41928;DHT22;27616;51.420;6.788;2024-03-23T01:27:08;6.10;99.90
41928;DHT22;27616;51.420;6.788;2024-03-23T01:29:34;6.00;99.90
41928;DHT22;27616;51.420;6.788;2024-03-23T01:31:59;6.00;99.90
41928;DHT22;27616;51.420;6.788;2024-03-23T01:34:25;6.00;99.90
41928;DHT22;27616;51.420;6.788;2024-03-23T01:36:51;6.00;99.90
41928;DHT22;27616;51.420;6.788;2024-03-23T01:39:16;6.10;99.90
41928;DHT22;27616;51.420;6.788;2024-03-23T01:41:42;6.10;99.90
41928;DHT22;27616;51.420;6.788;2024-03-23T01:44:09;6.00;99.90
41928;DHT22;27616;51.420;6.788;2024-03-23T01:46:36;6.00;99.90
41928;DHT22;27616;51.420;6.788;2024-03-23T01:49:02;6.00;99.90
41928;DHT22;27616;51.420;6.788;2024-03-23T01:51:28;6.00;99.90
41928;DHT22;27616;51.420;6.788;2024-03-23T01:53:54;6.10;99.90
41928;DHT22;27616;51.420;6.788;2024-03-23T01:56:20;6.10;99.90
41928;DHT22;27616;51.420;6.788;2024-03-23T01:58:46;6.10;99.90
41928;DHT22;27616;51.420;6.788;2024-03-23T02:01:11;6.20;99.90
41928;DHT22;27616;51.420;6.788;2024-03-23T02:03:37;6.20;99.90
41928;DHT22;27616;51.420;6.788;2024-03-23T02:06:03;6.20;99.90
41928;DHT22;27616;51.420;6.788;2024-03-23T02:08:30;6.20;99.90
41928;DHT22;27616;51.420;6.788;2024-03-23T02:10:56;6.20;99.90
41928;DHT22;27616;51.420;6.788;2024-03-23T02:13:23;6.10;99.90
41928;DHT22;27616;51.420;6.788;2024-03-23T02:15:49;6.10;99.90
41928;DHT22;27616;51.420;6.788;2024-03-23T02:18:15;6.10;99.90
41928;DHT22;27616;51.420;6.788;2024-03-23T02:20:40;6.10;99.90
41928;DHT22;27616;51.420;6.788;2024-03-23T02:23:13;6.10;99.90
41928;DHT22;27616;51.420;6.788;2024-03-23T02:25:39;6.10;99.90
41928;DHT22;27616;51.420;6.788;2024-03-23T02:28:05;6.00;99.90
41928;DHT22;27616;51.420;6.788;2024-03-23T02:30:30;5.90;99.90
41928;DHT22;27616;51.420;6.788;2024-03-23T02:32:56;5.90;99.90
41928;DHT22;27616;51.420;6.788;2024-03-23T02:35:21;5.90;99.90
41928;DHT22;27616;51.420;6.788;2024-03-23T02:37:47;5.80;99.90
41928;DHT22;27616;51.420;6.788;2024-03-23T02:40:16;5.90;99.90
41928;DHT22;27616;51.420;6.788;2024-03-23T02:42:42;5.90;99.90
41928;DHT22;27616;51.420;6.788;2024-03-23T02:45:08;5.90;99.90
41928;DHT22;27616;51.420;6.788;2024-03-23T02:47:34;5.90;99.90
41928;DHT22;27616;51.420;6.788;2024-03-23T02:50:00;6.00;99.90
41928;DHT22;27616;51.420;6.788;2024-03-23T02:52:26;6.00;99.90
41928;DHT22;27616;51.420;6.788;2024-03-23T02:54:51;6.00;99.90
41928;DHT22;27616;51.420;6.788;2024-03-23T02:57:17;6.00;99.90
41928;DHT22;27616;51.420;6.788;2024-03-23T02:59:43;6.10;99.90
41928;DHT22;27616;51.420;6.788;2024-03-23T03:02:08;6.10;99.90
41928;DHT22;27616;51.420;6.788;2024-03-23T03:04:34;6.10;99.90
41928;DHT22;27616;51.420;6.788;2024-03-23T03:07:00;6.10;99.90
41928;DHT22;27616;51.420;6.788;2024-03-23T03:09:26;6.10;99.90
41928;DHT22;27616;51.420;6.788;2024-03-23T03:11:51;6.10;99.90
41928;DHT22;27616;51.420;6.788;2024-03-23T03:14:17;6.10;99.90
41928;DHT22;27616;51.420;6.788;2024-03-23T03:16:42;6.10;99.90
41928;DHT22;27616;51.420;6.788;2024-03-23T03:19:08;6.10;99.90
41928;DHT22;27616;51.420;6.788;2024-03-23T03:21:35;6.10;99.90
41928;DHT22;27616;51.420;6.788;2024-03-23T03:24:01;6.10;99.90
41928;DHT22;27616;51.420;6.788;2024-03-23T03:26:27;6.10;99.90
41928;DHT22;27616;51.420;6.788;2024-03-23T03:28:52;6.10;99.90
41928;DHT22;27616;51.420;6.788;2024-03-23T03:31:18;6.20;99.90
41928;DHT22;27616;51.420;6.788;2024-03-23T03:33:44;6.10;99.90
41928;DHT22;27616;51.420;6.788;2024-03-23T03:36:10;6.10;99.90
41928;DHT22;27616;51.420;6.788;2024-03-23T03:38:36;6.10;99.90
41928;DHT22;27616;51.420;6.788;2024-03-23T03:41:02;6.10;99.90
41928;DHT22;27616;51.420;6.788;2024-03-23T03:43:28;6.10;99.90
41928;DHT22;27616;51.420;6.788;2024-03-23T03:45:55;6.10;99.90
41928;DHT22;27616;51.420;6.788;2024-03-23T03:48:21;6.10;99.90
41928;DHT22;27616;51.420;6.788;2024-03-23T03:50:47;6.00;99.90
41928;DHT22;27616;51.420;6.788;2024-03-23T03:53:13;6.00;99.90
41928;DHT22;27616;51.420;6.788;2024-03-23T03:55:38;6.00;99.90
41928;DHT22;27616;51.420;6.788;2024-03-23T03:58:04;6.00;99.90
41928;DHT22;27616;51.420;6.788;2024-03-23T04:00:30;6.00;99.90
41928;DHT22;27616;51.420;6.788;2024-03-23T04:02:56;6.00;99.90
41928;DHT22;27616;51.420;6.788;2024-03-23T04:05:22;6.00;99.90
41928;DHT22;27616;51.420;6.788;2024-03-23T04:07:48;6.00;99.90
41928;DHT22;27616;51.420;6.788;2024-03-23T04:10:14;6.10;99.90
41928;DHT22;27616;51.420;6.788;2024-03-23T04:12:40;6.10;99.90
41928;DHT22;27616;51.420;6.788;2024-03-23T04:15:06;6.10;99.90
41928;DHT22;27616;51.420;6.788;2024-03-23T04:17:32;6.00;99.90
41928;DHT22;27616;51.420;6.788;2024-03-23T04:20:00;6.00;99.90
41928;DHT22;27616;51.420;6.788;2024-03-23T04:22:26;6.00;99.90
41928;DHT22;27616;51.420;6.788;2024-03-23T04:24:58;6.10;99.90
41928;DHT22;27616;51.420;6.788;2024-03-23T04:27:24;6.10;99.90
41928;DHT22;27616;51.420;6.788;2024-03-23T04:29:53;6.10;99.90
41928;DHT22;27616;51.420;6.788;2024-03-23T04:32:18;6.10;99.90
41928;DHT22;27616;51.420;6.788;2024-03-23T04:34:44;6.10;99.90
41928;DHT22;27616;51.420;6.788;2024-03-23T04:37:11;6.10;99.90
41928;DHT22;27616;51.420;6.788;2024-03-23T04:39:37;6.10;99.90
41928;DHT22;27616;51.420;6.788;2024-03-23T04:42:03;6.10;99.90
41928;DHT22;27616;51.420;6.788;2024-03-23T04:44:29;6.10;99.90
41928;DHT22;27616;51.420;6.788;2024-03-23T04:47:00;6.10;99.90
41928;DHT22;27616;51.420;6.788;2024-03-23T04:49:26;6.10;99.90
41928;DHT22;27616;51.420;6.788;2024-03-23T04:51:51;6.10;99.90
41928;DHT22;27616;51.420;6.788;2024-03-23T04:54:17;6.00;99.90
41928;DHT22;27616;51.420;6.788;2024-03-23T04:56:43;6.10;99.90
41928;DHT22;27616;51.420;6.788;2024-03-23T04:59:08;6.10;99.90
41928;DHT22;27616;51.420;6.788;2024-03-23T05:01:34;6.10;99.90
41928;DHT22;27616;51.420;6.788;2024-03-23T05:04:02;6.10;99.90
41928;DHT22;27616;51.420;6.788;2024-03-23T05:06:28;6.10;99.90
41928;DHT22;27616;51.420;6.788;2024-03-23T05:08:54;6.10;99.90
41928;DHT22;27616;51.420;6.788;2024-03-23T05:11:19;6.10;99.90
41928;DHT22;27616;51.420;6.788;2024-03-23T05:13:46;6.10;99.90
41928;DHT22;27616;51.420;6.788;2024-03-23T05:16:12;6.10;99.90
41928;DHT22;27616;51.420;6.788;2024-03-23T05:18:37;6.10;99.90
41928;DHT22;27616;51.420;6.788;2024-03-23T05:21:03;6.10;99.90
41928;DHT22;27616;51.420;6.788;2024-03-23T05:23:29;6.10;99.90
41928;DHT22;27616;51.420;6.788;2024-03-23T05:25:55;6.10;99.90
41928;DHT22;27616;51.420;6.788;2024-03-23T05:28:21;6.10;99.90
41928;DHT22;27616;51.420;6.788;2024-03-23T05:30:54;6.20;99.90
41928;DHT22;27616;51.420;6.788;2024-03-23T05:33:20;6.20;99.90
41928;DHT22;27616;51.420;6.788;2024-03-23T05:35:47;6.10;99.90
41928;DHT22;27616;51.420;6.788;2024-03-23T05:38:13;6.10;99.90
41928;DHT22;27616;51.420;6.788;2024-03-23T05:40:39;6.10;99.90
41928;DHT22;27616;51.420;6.788;2024-03-23T05:43:08;6.10;99.90
41928;DHT22;27616;51.420;6.788;2024-03-23T05:45:34;6.10;99.90
41928;DHT22;27616;51.420;6.788;2024-03-23T05:48:00;6.10;99.90
41928;DHT22;27616;51.420;6.788;2024-03-23T05:50:26;6.00;99.90
41928;DHT22;27616;51.420;6.788;2024-03-23T05:52:52;6.10;99.90
41928;DHT22;27616;51.420;6.788;2024-03-23T05:55:17;6.10;99.90
41928;DHT22;27616;51.420;6.788;2024-03-23T05:57:43;6.00;99.90
41928;DHT22;27616;51.420;6.788;2024-03-23T06:00:09;6.00;99.90
41928;DHT22;27616;51.420;6.788;2024-03-23T06:02:42;6.00;99.90
41928;DHT22;27616;51.420;6.788;2024-03-23T06:05:10;6.00;99.90
41928;DHT22;27616;51.420;6.788;2024-03-23T06:07:36;6.00;99.90
41928;DHT22;27616;51.420;6.788;2024-03-23T06:10:02;6.00;99.90
41928;DHT22;27616;51.420;6.788;2024-03-23T06:12:27;6.00;99.90
41928;DHT22;27616;51.420;6.788;2024-03-23T06:14:53;6.00;99.90
41928;DHT22;27616;51.420;6.788;2024-03-23T06:17:18;6.00;99.90
41928;DHT22;27616;51.420;6.788;2024-03-23T06:19:44;6.10;99.90
41928;DHT22;27616;51.420;6.788;2024-03-23T06:22:10;6.10;99.90
41928;DHT22;27616;51.420;6.788;2024-03-23T06:24:36;6.10;99.90
41928;DHT22;27616;51.420;6.788;2024-03-23T06:27:01;6.00;99.90
41928;DHT22;27616;51.420;6.788;2024-03-23T06:29:27;6.00;99.90
41928;DHT22;27616;51.420;6.788;2024-03-23T06:31:56;6.00;99.90
41928;DHT22;27616;51.420;6.788;2024-03-23T06:34:21;6.10;99.90
41928;DHT22;27616;51.420;6.788;2024-03-23T06:36:48;6.10;99.90
41928;DHT22;27616;51.420;6.788;2024-03-23T06:39:15;6.20;99.90
41928;DHT22;27616;51.420;6.788;2024-03-23T06:42:01;6.20;99.90
41928;DHT22;27616;51.420;6.788;2024-03-23T06:44:27;6.30;99.90
41928;DHT22;27616;51.420;6.788;2024-03-23T06:46:52;6.30;99.90
41928;DHT22;27616;51.420;6.788;2024-03-23T06:49:18;6.40;99.90
41928;DHT22;27616;51.420;6.788;2024-03-23T06:51:45;6.50;99.90
41928;DHT22;27616;51.420;6.788;2024-03-23T06:54:10;6.60;99.90
41928;DHT22;27616;51.420;6.788;2024-03-23T06:56:36;6.60;99.90
41928;DHT22;27616;51.420;6.788;2024-03-23T06:59:02;6.80;99.90
41928;DHT22;27616;51.420;6.788;2024-03-23T07:01:27;6.90;99.90
41928;DHT22;27616;51.420;6.788;2024-03-23T07:03:54;7.00;99.90
41928;DHT22;27616;51.420;6.788;2024-03-23T07:06:20;7.20;99.90
41928;DHT22;27616;51.420;6.788;2024-03-23T07:08:46;7.30;99.90
41928;DHT22;27616;51.420;6.788;2024-03-23T07:11:11;7.30;99.90
41928;DHT22;27616;51.420;6.788;2024-03-23T07:13:37;7.40;99.90
41928;DHT22;27616;51.420;6.788;2024-03-23T07:16:03;7.50;99.90
41928;DHT22;27616;51.420;6.788;2024-03-23T07:18:28;7.60;99.90
41928;DHT22;27616;51.420;6.788;2024-03-23T07:20:55;7.90;99.90
41928;DHT22;27616;51.420;6.788;2024-03-23T07:23:25;8.30;99.90
41928;DHT22;27616;51.420;6.788;2024-03-23T07:26:03;8.60;99.90
41928;DHT22;27616;51.420;6.788;2024-03-23T07:28:33;9.00;99.90
41928;DHT22;27616;51.420;6.788;2024-03-23T07:31:11;9.30;99.90
41928;DHT22;27616;51.420;6.788;2024-03-23T07:33:42;9.60;99.90
41928;DHT22;27616;51.420;6.788;2024-03-23T07:36:07;9.70;99.90
41928;DHT22;27616;51.420;6.788;2024-03-23T07:38:33;10.00;99.90
41928;DHT22;27616;51.420;6.788;2024-03-23T07:41:22;10.40;99.90
41928;DHT22;27616;51.420;6.788;2024-03-23T07:43:48;10.60;99.90
41928;DHT22;27616;51.420;6.788;2024-03-23T07:46:15;10.90;99.90
41928;DHT22;27616;51.420;6.788;2024-03-23T07:48:41;11.10;99.90
41928;DHT22;27616;51.420;6.788;2024-03-23T07:51:17;11.10;99.90
41928;DHT22;27616;51.420;6.788;2024-03-23T07:53:44;11.00;99.90
41928;DHT22;27616;51.420;6.788;2024-03-23T07:56:11;10.60;99.90
41928;DHT22;27616;51.420;6.788;2024-03-23T07:58:38;10.50;99.90
41928;DHT22;27616;51.420;6.788;2024-03-23T08:01:08;10.60;99.90
41928;DHT22;27616;51.420;6.788;2024-03-23T08:03:38;10.70;99.90
41928;DHT22;27616;51.420;6.788;2024-03-23T08:06:11;10.90;99.90
41928;DHT22;27616;51.420;6.788;2024-03-23T08:08:39;11.00;99.90
41928;DHT22;27616;51.420;6.788;2024-03-23T08:11:04;11.20;99.90
41928;DHT22;27616;51.420;6.788;2024-03-23T08:13:31;11.20;99.90
41928;DHT22;27616;51.420;6.788;2024-03-23T08:15:57;11.40;99.90
41928;DHT22;27616;51.420;6.788;2024-03-23T08:18:23;11.60;99.90
41928;DHT22;27616;51.420;6.788;2024-03-23T08:20:59;11.50;99.90
41928;DHT22;27616;51.420;6.788;2024-03-23T08:23:25;11.50;99.90
41928;DHT22;27616;51.420;6.788;2024-03-23T08:25:51;11.40;99.90
41928;DHT22;27616;51.420;6.788;2024-03-23T08:28:17;11.50;99.90
41928;DHT22;27616;51.420;6.788;2024-03-23T08:30:43;11.40;99.90
41928;DHT22;27616;51.420;6.788;2024-03-23T08:33:08;11.30;99.90
41928;DHT22;27616;51.420;6.788;2024-03-23T08:35:34;10.80;99.90
41928;DHT22;27616;51.420;6.788;2024-03-23T08:38:00;10.50;99.90
41928;DHT22;27616;51.420;6.788;2024-03-23T08:40:26;10.10;99.90
41928;DHT22;27616;51.420;6.788;2024-03-23T08:42:51;9.70;99.90
41928;DHT22;27616;51.420;6.788;2024-03-23T08:45:17;9.30;99.90
41928;DHT22;27616;51.420;6.788;2024-03-23T08:47:43;8.90;99.90
41928;DHT22;27616;51.420;6.788;2024-03-23T08:50:09;8.70;99.90
41928;DHT22;27616;51.420;6.788;2024-03-23T08:52:35;8.50;99.90
41928;DHT22;27616;51.420;6.788;2024-03-23T08:55:00;8.40;99.90
41928;DHT22;27616;51.420;6.788;2024-03-23T08:57:26;8.40;99.90
41928;DHT22;27616;51.420;6.788;2024-03-23T08:59:52;8.20;99.90
41928;DHT22;27616;51.420;6.788;2024-03-23T09:02:17;8.30;99.90
41928;DHT22;27616;51.420;6.788;2024-03-23T09:04:44;8.20;99.90
41928;DHT22;27616;51.420;6.788;2024-03-23T09:07:10;8.30;99.90
41928;DHT22;27616;51.420;6.788;2024-03-23T09:09:38;8.40;99.90
41928;DHT22;27616;51.420;6.788;2024-03-23T09:12:04;8.60;99.90
41928;DHT22;27616;51.420;6.788;2024-03-23T09:14:30;8.80;99.90
41928;DHT22;27616;51.420;6.788;2024-03-23T09:16:56;9.10;99.90
41928;DHT22;27616;51.420;6.788;2024-03-23T09:19:21;9.50;99.90
41928;DHT22;27616;51.420;6.788;2024-03-23T09:21:47;9.90;99.90
41928;DHT22;27616;51.420;6.788;2024-03-23T09:24:14;10.20;99.90
41928;DHT22;27616;51.420;6.788;2024-03-23T09:26:40;10.40;99.90
41928;DHT22;27616;51.420;6.788;2024-03-23T09:29:06;10.80;99.90
41928;DHT22;27616;51.420;6.788;2024-03-23T09:31:31;11.10;99.90
41928;DHT22;27616;51.420;6.788;2024-03-23T09:33:59;11.40;99.90
41928;DHT22;27616;51.420;6.788;2024-03-23T09:36:24;11.50;99.90
41928;DHT22;27616;51.420;6.788;2024-03-23T09:38:50;11.80;99.90
41928;DHT22;27616;51.420;6.788;2024-03-23T09:41:15;12.10;99.90
41928;DHT22;27616;51.420;6.788;2024-03-23T09:43:41;11.90;99.90
41928;DHT22;27616;51.420;6.788;2024-03-23T09:46:07;12.00;99.90
41928;DHT22;27616;51.420;6.788;2024-03-23T09:48:33;11.90;99.90
41928;DHT22;27616;51.420;6.788;2024-03-23T09:50:59;11.80;99.90
41928;DHT22;27616;51.420;6.788;2024-03-23T09:53:25;11.50;99.90
41928;DHT22;27616;51.420;6.788;2024-03-23T09:55:50;11.60;99.90
41928;DHT22;27616;51.420;6.788;2024-03-23T09:58:17;11.70;99.90
41928;DHT22;27616;51.420;6.788;2024-03-23T10:00:44;11.40;99.90
41928;DHT22;27616;51.420;6.788;2024-03-23T10:03:10;11.60;99.90
41928;DHT22;27616;51.420;6.788;2024-03-23T10:05:37;11.80;99.90
41928;DHT22;27616;51.420;6.788;2024-03-23T10:10:44;12.70;99.90
41928;DHT22;27616;51.420;6.788;2024-03-23T10:13:10;13.30;99.90
41928;DHT22;27616;51.420;6.788;2024-03-23T10:15:38;13.70;99.90
41928;DHT22;27616;51.420;6.788;2024-03-23T10:18:20;14.10;99.90
41928;DHT22;27616;51.420;6.788;2024-03-23T10:21:14;14.80;99.00
41928;DHT22;27616;51.420;6.788;2024-03-23T10:23:44;14.70;98.90
41928;DHT22;27616;51.420;6.788;2024-03-23T10:26:21;14.20;99.90
41928;DHT22;27616;51.420;6.788;2024-03-23T10:29:01;13.70;99.90
41928;DHT22;27616;51.420;6.788;2024-03-23T10:31:33;13.20;99.90
41928;DHT22;27616;51.420;6.788;2024-03-23T10:34:02;12.60;99.90
41928;DHT22;27616;51.420;6.788;2024-03-23T10:36:29;11.90;99.90
41928;DHT22;27616;51.420;6.788;2024-03-23T10:38:56;11.10;99.90
41928;DHT22;27616;51.420;6.788;2024-03-23T10:41:26;10.00;99.90
41928;DHT22;27616;51.420;6.788;2024-03-23T10:43:53;9.00;99.90
41928;DHT22;27616;51.420;6.788;2024-03-23T10:46:21;8.30;99.90
41928;DHT22;27616;51.420;6.788;2024-03-23T10:48:46;7.70;99.90
41928;DHT22;27616;51.420;6.788;2024-03-23T10:51:14;7.40;99.90
41928;DHT22;27616;51.420;6.788;2024-03-23T10:53:40;7.20;99.90
41928;DHT22;27616;51.420;6.788;2024-03-23T10:56:06;7.20;99.90
41928;DHT22;27616;51.420;6.788;2024-03-23T10:58:41;7.20;99.90
41928;DHT22;27616;51.420;6.788;2024-03-23T11:01:11;7.40;99.90
41928;DHT22;27616;51.420;6.788;2024-03-23T11:03:37;7.50;99.90
41928;DHT22;27616;51.420;6.788;2024-03-23T11:06:06;7.60;99.90
41928;DHT22;27616;51.420;6.788;2024-03-23T11:08:38;8.20;99.90
41928;DHT22;27616;51.420;6.788;2024-03-23T11:11:21;9.20;99.90
41928;DHT22;27616;51.420;6.788;2024-03-23T11:13:51;9.90;99.90
41928;DHT22;27616;51.420;6.788;2024-03-23T11:16:25;10.20;99.90
41928;DHT22;27616;51.420;6.788;2024-03-23T11:18:53;10.30;99.90
41928;DHT22;27616;51.420;6.788;2024-03-23T11:21:53;10.80;99.90
41928;DHT22;27616;51.420;6.788;2024-03-23T11:24:20;11.90;99.90
41928;DHT22;27616;51.420;6.788;2024-03-23T11:26:46;12.70;99.90
41928;DHT22;27616;51.420;6.788;2024-03-23T11:29:14;13.20;99.90
41928;DHT22;27616;51.420;6.788;2024-03-23T11:31:53;13.70;99.90
41928;DHT22;27616;51.420;6.788;2024-03-23T11:34:19;14.40;99.90
41928;DHT22;27616;51.420;6.788;2024-03-23T11:36:46;15.00;99.90
41928;DHT22;27616;51.420;6.788;2024-03-23T11:39:17;15.50;99.70
41928;DHT22;27616;51.420;6.788;2024-03-23T11:41:51;16.30;99.10
41928;DHT22;27616;51.420;6.788;2024-03-23T11:44:22;16.60;98.80
41928;DHT22;27616;51.420;6.788;2024-03-23T11:46:49;17.00;97.30
41928;DHT22;27616;51.420;6.788;2024-03-23T11:49:28;16.50;96.00
41928;DHT22;27616;51.420;6.788;2024-03-23T11:51:56;16.10;94.30
41928;DHT22;27616;51.420;6.788;2024-03-23T11:54:23;15.90;94.40
41928;DHT22;27616;51.420;6.788;2024-03-23T11:56:58;14.60;94.60
41928;DHT22;27616;51.420;6.788;2024-03-23T11:59:35;12.70;96.00
41928;DHT22;27616;51.420;6.788;2024-03-23T12:02:12;11.70;98.10
41928;DHT22;27616;51.420;6.788;2024-03-23T12:04:40;10.90;99.90
41928;DHT22;27616;51.420;6.788;2024-03-23T12:07:16;10.30;99.90
41928;DHT22;27616;51.420;6.788;2024-03-23T12:09:45;9.80;99.90
41928;DHT22;27616;51.420;6.788;2024-03-23T12:12:15;9.80;99.90
41928;DHT22;27616;51.420;6.788;2024-03-23T12:14:42;10.50;99.90
41928;DHT22;27616;51.420;6.788;2024-03-23T12:17:12;11.00;99.90
41928;DHT22;27616;51.420;6.788;2024-03-23T12:19:41;11.00;99.90
41928;DHT22;27616;51.420;6.788;2024-03-23T12:22:08;10.80;99.90
41928;DHT22;27616;51.420;6.788;2024-03-23T12:24:34;10.60;99.90
41928;DHT22;27616;51.420;6.788;2024-03-23T12:27:02;10.70;99.90
41928;DHT22;27616;51.420;6.788;2024-03-23T12:29:29;10.80;99.90
41928;DHT22;27616;51.420;6.788;2024-03-23T12:31:55;11.00;99.90
41928;DHT22;27616;51.420;6.788;2024-03-23T12:34:21;11.20;99.90
41928;DHT22;27616;51.420;6.788;2024-03-23T12:36:47;11.20;99.90
41928;DHT22;27616;51.420;6.788;2024-03-23T12:39:12;11.40;99.90
41928;DHT22;27616;51.420;6.788;2024-03-23T12:41:38;11.70;99.90
41928;DHT22;27616;51.420;6.788;2024-03-23T12:44:03;12.00;99.90
41928;DHT22;27616;51.420;6.788;2024-03-23T12:46:29;11.70;99.90
41928;DHT22;27616;51.420;6.788;2024-03-23T12:48:54;11.10;99.90
41928;DHT22;27616;51.420;6.788;2024-03-23T12:51:20;10.20;99.90
41928;DHT22;27616;51.420;6.788;2024-03-23T12:53:46;9.50;99.90
41928;DHT22;27616;51.420;6.788;2024-03-23T12:56:12;8.90;99.90
41928;DHT22;27616;51.420;6.788;2024-03-23T12:58:37;8.40;99.90
41928;DHT22;27616;51.420;6.788;2024-03-23T13:01:03;8.20;99.90
41928;DHT22;27616;51.420;6.788;2024-03-23T13:03:29;8.40;99.90
41928;DHT22;27616;51.420;6.788;2024-03-23T13:05:54;8.70;99.90
41928;DHT22;27616;51.420;6.788;2024-03-23T13:08:20;8.90;99.90
41928;DHT22;27616;51.420;6.788;2024-03-23T13:10:46;9.30;99.90
41928;DHT22;27616;51.420;6.788;2024-03-23T13:13:12;9.90;99.90
41928;DHT22;27616;51.420;6.788;2024-03-23T13:15:38;10.60;99.90
41928;DHT22;27616;51.420;6.788;2024-03-23T13:18:03;11.20;99.90
41928;DHT22;27616;51.420;6.788;2024-03-23T13:20:29;11.20;99.90
41928;DHT22;27616;51.420;6.788;2024-03-23T13:22:54;11.20;99.90
41928;DHT22;27616;51.420;6.788;2024-03-23T13:25:20;11.10;99.90
41928;DHT22;27616;51.420;6.788;2024-03-23T13:27:46;11.10;99.90
41928;DHT22;27616;51.420;6.788;2024-03-23T13:30:12;10.90;99.90
41928;DHT22;27616;51.420;6.788;2024-03-23T13:32:38;10.40;99.90
41928;DHT22;27616;51.420;6.788;2024-03-23T13:35:04;10.10;99.90
41928;DHT22;27616;51.420;6.788;2024-03-23T13:37:32;9.80;99.90
41928;DHT22;27616;51.420;6.788;2024-03-23T13:39:57;9.60;99.90
41928;DHT22;27616;51.420;6.788;2024-03-23T13:42:23;9.30;99.90
41928;DHT22;27616;51.420;6.788;2024-03-23T13:44:51;9.30;99.90
41928;DHT22;27616;51.420;6.788;2024-03-23T13:47:16;9.70;99.90
41928;DHT22;27616;51.420;6.788;2024-03-23T13:49:42;10.10;99.90
41928;DHT22;27616;51.420;6.788;2024-03-23T13:52:08;10.50;99.90
41928;DHT22;27616;51.420;6.788;2024-03-23T13:54:33;10.70;99.90
41928;DHT22;27616;51.420;6.788;2024-03-23T13:56:59;10.80;99.90
41928;DHT22;27616;51.420;6.788;2024-03-23T13:59:24;10.80;99.90
41928;DHT22;27616;51.420;6.788;2024-03-23T14:01:51;10.80;99.90
41928;DHT22;27616;51.420;6.788;2024-03-23T14:04:16;10.80;99.90
41928;DHT22;27616;51.420;6.788;2024-03-23T14:06:45;11.00;99.90
41928;DHT22;27616;51.420;6.788;2024-03-23T14:09:12;10.90;99.90
41928;DHT22;27616;51.420;6.788;2024-03-23T14:11:38;10.60;99.90
41928;DHT22;27616;51.420;6.788;2024-03-23T14:14:04;10.50;99.90
41928;DHT22;27616;51.420;6.788;2024-03-23T14:16:30;10.50;99.90
41928;DHT22;27616;51.420;6.788;2024-03-23T14:18:56;10.30;99.90
41928;DHT22;27616;51.420;6.788;2024-03-23T14:21:22;10.30;99.90
41928;DHT22;27616;51.420;6.788;2024-03-23T14:23:48;10.30;99.90
41928;DHT22;27616;51.420;6.788;2024-03-23T14:26:13;10.20;99.90
41928;DHT22;27616;51.420;6.788;2024-03-23T14:28:39;10.10;99.90
41928;DHT22;27616;51.420;6.788;2024-03-23T14:31:05;10.20;99.90
41928;DHT22;27616;51.420;6.788;2024-03-23T14:33:39;10.20;99.90
41928;DHT22;27616;51.420;6.788;2024-03-23T14:36:14;10.10;99.90
41928;DHT22;27616;51.420;6.788;2024-03-23T14:38:40;10.00;99.90
41928;DHT22;27616;51.420;6.788;2024-03-23T14:41:06;9.90;99.90
41928;DHT22;27616;51.420;6.788;2024-03-23T14:43:31;9.80;99.90
41928;DHT22;27616;51.420;6.788;2024-03-23T14:48:32;9.80;99.90
41928;DHT22;27616;51.420;6.788;2024-03-23T14:50:59;9.70;99.90
41928;DHT22;27616;51.420;6.788;2024-03-23T14:53:26;9.60;99.90
41928;DHT22;27616;51.420;6.788;2024-03-23T14:55:55;9.60;99.90
41928;DHT22;27616;51.420;6.788;2024-03-23T14:58:20;9.50;99.90
41928;DHT22;27616;51.420;6.788;2024-03-23T15:00:46;9.50;99.90
41928;DHT22;27616;51.420;6.788;2024-03-23T15:03:12;9.50;99.90
41928;DHT22;27616;51.420;6.788;2024-03-23T15:05:37;9.70;99.90
41928;DHT22;27616;51.420;6.788;2024-03-23T15:08:03;9.70;99.90
41928;DHT22;27616;51.420;6.788;2024-03-23T15:10:29;9.90;99.90
41928;DHT22;27616;51.420;6.788;2024-03-23T15:12:54;10.00;99.90
41928;DHT22;27616;51.420;6.788;2024-03-23T15:15:20;10.10;99.90
41928;DHT22;27616;51.420;6.788;2024-03-23T15:17:46;10.10;99.90
41928;DHT22;27616;51.420;6.788;2024-03-23T15:20:11;10.10;99.90
41928;DHT22;27616;51.420;6.788;2024-03-23T15:22:37;10.10;99.90
41928;DHT22;27616;51.420;6.788;2024-03-23T15:25:03;10.00;99.90
41928;DHT22;27616;51.420;6.788;2024-03-23T15:27:29;9.90;99.90
41928;DHT22;27616;51.420;6.788;2024-03-23T15:29:56;9.80;99.90
41928;DHT22;27616;51.420;6.788;2024-03-23T15:32:23;9.60;99.90
41928;DHT22;27616;51.420;6.788;2024-03-23T15:34:48;9.40;99.90
41928;DHT22;27616;51.420;6.788;2024-03-23T15:37:14;9.30;99.90
41928;DHT22;27616;51.420;6.788;2024-03-23T15:39:40;9.30;99.90
41928;DHT22;27616;51.420;6.788;2024-03-23T15:42:07;9.30;99.90
41928;DHT22;27616;51.420;6.788;2024-03-23T15:44:32;9.30;99.90
41928;DHT22;27616;51.420;6.788;2024-03-23T15:46:59;9.30;99.90
41928;DHT22;27616;51.420;6.788;2024-03-23T15:49:24;9.30;99.90
41928;DHT22;27616;51.420;6.788;2024-03-23T15:51:50;9.20;99.90
41928;DHT22;27616;51.420;6.788;2024-03-23T15:54:15;9.20;99.90
41928;DHT22;27616;51.420;6.788;2024-03-23T15:56:41;9.10;99.90
41928;DHT22;27616;51.420;6.788;2024-03-23T15:59:06;9.00;99.90
41928;DHT22;27616;51.420;6.788;2024-03-23T16:01:35;8.90;99.90
41928;DHT22;27616;51.420;6.788;2024-03-23T16:04:01;8.80;99.90
41928;DHT22;27616;51.420;6.788;2024-03-23T16:06:27;8.70;99.90
41928;DHT22;27616;51.420;6.788;2024-03-23T16:08:52;8.80;99.90
41928;DHT22;27616;51.420;6.788;2024-03-23T16:11:18;8.80;99.90
41928;DHT22;27616;51.420;6.788;2024-03-23T16:13:44;8.80;99.90
41928;DHT22;27616;51.420;6.788;2024-03-23T16:16:09;8.90;99.90
41928;DHT22;27616;51.420;6.788;2024-03-23T16:18:36;8.80;99.90
41928;DHT22;27616;51.420;6.788;2024-03-23T16:21:04;8.70;99.90
41928;DHT22;27616;51.420;6.788;2024-03-23T16:23:35;8.60;99.90
41928;DHT22;27616;51.420;6.788;2024-03-23T16:26:03;8.60;99.90
41928;DHT22;27616;51.420;6.788;2024-03-23T16:28:31;8.60;99.90
41928;DHT22;27616;51.420;6.788;2024-03-23T16:31:02;8.50;99.90
41928;DHT22;27616;51.420;6.788;2024-03-23T16:33:28;8.50;99.90
41928;DHT22;27616;51.420;6.788;2024-03-23T16:36:00;8.50;99.90
41928;DHT22;27616;51.420;6.788;2024-03-23T16:38:27;8.40;99.90